Malaga Aeropuerto en Andalucia

latitud = 36° 39' 58''N | longitud = 004° 28' 56''W
5 metros sobre el nivel del mar |

Fecha, hora, temperatura, viento dirección y velocidad, humedad y presión.

  • 16-07-2018 13:00:00 | 30.80°C | Oeste |21.00 km/h | 33.00% | 1017.30 hPa
  • 16-07-2018 12:00:00 | 29.20°C | Oeste |26.00 km/h | 38.00% | 1017.70 hPa
  • 16-07-2018 11:00:00 | 27.40°C | Oeste |24.00 km/h | 43.00% | 1018.20 hPa
  • 16-07-2018 10:00:00 | 25.00°C | Oeste |20.00 km/h | 54.00% | 1018.40 hPa
  • 16-07-2018 09:00:00 | 23.50°C | Oeste |25.00 km/h | 58.00% | 1018.10 hPa
  • 16-07-2018 08:00:00 | 22.20°C | Oeste |32.00 km/h | 62.00% | 1017.70 hPa
  • 16-07-2018 07:00:00 | 22.20°C | Oeste |27.00 km/h | 62.00% | 1017.50 hPa
  • 16-07-2018 06:00:00 | 22.60°C | Oeste |33.00 km/h | 59.00% | 1017.10 hPa
  • 16-07-2018 05:00:00 | 23.00°C | Oeste |22.00 km/h | 57.00% | 1017.50 hPa
  • 16-07-2018 04:00:00 | 23.10°C | Noroeste |15.00 km/h | 55.00% | 1017.40 hPa
  • 16-07-2018 03:00:00 | 23.40°C | Oeste |19.00 km/h | 52.00% | 1017.80 hPa
  • 16-07-2018 02:00:00 | 24.00°C | Noroeste |23.00 km/h | 49.00% | 1018.00 hPa
  • 16-07-2018 01:00:00 | 24.10°C | Noroeste |19.00 km/h | 51.00% | 1017.80 hPa
  • 16-07-2018 00:00:00 | 25.10°C | Oeste |26.00 km/h | 46.00% | 1017.70 hPa
  • 15-07-2018 23:00:00 | 26.10°C | Oeste |25.00 km/h | 41.00% | 1017.10 hPa
  • 15-07-2018 22:00:00 | 28.30°C | Oeste |22.00 km/h | 33.00% | 1015.90 hPa
  • 15-07-2018 21:00:00 | 30.30°C | Noroeste |22.00 km/h | 27.00% | 1015.30 hPa
  • 15-07-2018 20:00:00 | 32.20°C | Noroeste |24.00 km/h | 28.00% | 1014.30 hPa
  • 15-07-2018 19:00:00 | 33.80°C | Noroeste |17.00 km/h | 27.00% | 1014.20 hPa
  • 15-07-2018 18:00:00 | 34.40°C | Noroeste |16.00 km/h | 25.00% | 1014.10 hPa
  • 15-07-2018 17:00:00 | 34.60°C | Sudoeste |11.00 km/h | 24.00% | 1014.10 hPa
  • 15-07-2018 16:00:00 | 32.70°C | Oeste |9.00 km/h | 32.00% | 1014.60 hPa
  • 15-07-2018 15:00:00 | 33.80°C | Oeste |14.00 km/h | 22.00% | 1015.00 hPa
  • 15-07-2018 14:00:00 | 32.30°C | Oeste |13.00 km/h | 23.00% | 1015.50 hPa
    • Datos gráficos mensuales de Malaga Aeropuerto: